sensor_id;sensor_type;location;lat;lon;timestamp;temperature;humidity
10046;DHT22;5063;50.878;4.742;2022-11-18T00:00:48;10.00;99.90
10046;DHT22;5063;50.878;4.742;2022-11-18T00:03:14;9.90;99.90
10046;DHT22;5063;50.878;4.742;2022-11-18T00:05:40;9.90;99.90
10046;DHT22;5063;50.878;4.742;2022-11-18T00:08:06;9.80;99.90
10046;DHT22;5063;50.878;4.742;2022-11-18T00:10:32;9.70;99.90
10046;DHT22;5063;50.878;4.742;2022-11-18T00:12:57;9.70;99.90
10046;DHT22;5063;50.878;4.742;2022-11-18T00:15:41;9.60;99.90
10046;DHT22;5063;50.878;4.742;2022-11-18T00:18:07;9.60;99.90
10046;DHT22;5063;50.878;4.742;2022-11-18T00:20:34;9.60;99.90
10046;DHT22;5063;50.878;4.742;2022-11-18T00:22:59;9.70;99.90
10046;DHT22;5063;50.878;4.742;2022-11-18T00:25:26;9.70;99.90
10046;DHT22;5063;50.878;4.742;2022-11-18T00:27:52;9.80;99.90
10046;DHT22;5063;50.878;4.742;2022-11-18T00:30:18;9.90;99.90
10046;DHT22;5063;50.878;4.742;2022-11-18T00:32:44;10.30;99.90
10046;DHT22;5063;50.878;4.742;2022-11-18T00:35:10;10.10;99.90
10046;DHT22;5063;50.878;4.742;2022-11-18T00:37:35;10.10;99.90
10046;DHT22;5063;50.878;4.742;2022-11-18T00:40:01;10.30;99.90
10046;DHT22;5063;50.878;4.742;2022-11-18T00:42:28;10.20;99.90
10046;DHT22;5063;50.878;4.742;2022-11-18T00:45:12;10.30;99.90
10046;DHT22;5063;50.878;4.742;2022-11-18T00:47:38;10.20;99.90
10046;DHT22;5063;50.878;4.742;2022-11-18T00:50:04;10.30;99.90
10046;DHT22;5063;50.878;4.742;2022-11-18T00:52:30;10.40;99.90
10046;DHT22;5063;50.878;4.742;2022-11-18T00:54:56;10.40;99.90
10046;DHT22;5063;50.878;4.742;2022-11-18T00:57:21;10.50;99.90
10046;DHT22;5063;50.878;4.742;2022-11-18T00:59:47;10.60;99.90
10046;DHT22;5063;50.878;4.742;2022-11-18T01:02:13;10.70;99.90
10046;DHT22;5063;50.878;4.742;2022-11-18T01:04:38;10.60;99.90
10046;DHT22;5063;50.878;4.742;2022-11-18T01:07:04;10.70;99.90
10046;DHT22;5063;50.878;4.742;2022-11-18T01:09:30;10.70;99.90
10046;DHT22;5063;50.878;4.742;2022-11-18T01:11:56;10.70;99.90
10046;DHT22;5063;50.878;4.742;2022-11-18T01:14:40;10.70;99.90
10046;DHT22;5063;50.878;4.742;2022-11-18T01:17:05;10.70;99.90
10046;DHT22;5063;50.878;4.742;2022-11-18T01:19:31;10.70;99.90
10046;DHT22;5063;50.878;4.742;2022-11-18T01:21:57;10.60;99.90
10046;DHT22;5063;50.878;4.742;2022-11-18T01:24:28;10.70;99.90
10046;DHT22;5063;50.878;4.742;2022-11-18T01:26:54;10.70;99.90
10046;DHT22;5063;50.878;4.742;2022-11-18T01:29:20;10.70;99.90
10046;DHT22;5063;50.878;4.742;2022-11-18T01:31:46;10.70;99.90
10046;DHT22;5063;50.878;4.742;2022-11-18T01:34:11;10.70;99.90
10046;DHT22;5063;50.878;4.742;2022-11-18T01:36:37;10.60;99.90
10046;DHT22;5063;50.878;4.742;2022-11-18T01:39:03;10.60;99.90
10046;DHT22;5063;50.878;4.742;2022-11-18T01:41:29;10.60;99.90
10046;DHT22;5063;50.878;4.742;2022-11-18T01:46:21;10.60;99.90
10046;DHT22;5063;50.878;4.742;2022-11-18T01:51:32;10.60;99.90
10046;DHT22;5063;50.878;4.742;2022-11-18T01:54:08;10.50;99.90
10046;DHT22;5063;50.878;4.742;2022-11-18T01:56:42;10.50;99.90
10046;DHT22;5063;50.878;4.742;2022-11-18T01:59:21;10.50;99.90
10046;DHT22;5063;50.878;4.742;2022-11-18T02:01:48;10.50;99.90
10046;DHT22;5063;50.878;4.742;2022-11-18T02:04:14;10.50;99.90
10046;DHT22;5063;50.878;4.742;2022-11-18T02:06:42;10.50;99.90
10046;DHT22;5063;50.878;4.742;2022-11-18T02:09:08;10.40;99.90
10046;DHT22;5063;50.878;4.742;2022-11-18T02:11:34;10.30;99.90
10046;DHT22;5063;50.878;4.742;2022-11-18T02:14:21;10.30;99.90
10046;DHT22;5063;50.878;4.742;2022-11-18T02:28:01;9.70;99.90
10046;DHT22;5063;50.878;4.742;2022-11-18T02:33:17;9.70;99.90
10046;DHT22;5063;50.878;4.742;2022-11-18T02:35:55;9.60;99.90
10046;DHT22;5063;50.878;4.742;2022-11-18T02:38:34;9.60;99.90
10046;DHT22;5063;50.878;4.742;2022-11-18T02:41:05;9.60;99.90
10046;DHT22;5063;50.878;4.742;2022-11-18T02:43:53;9.60;99.90
10046;DHT22;5063;50.878;4.742;2022-11-18T02:46:29;9.50;99.90
10046;DHT22;5063;50.878;4.742;2022-11-18T02:48:59;9.40;99.90
10046;DHT22;5063;50.878;4.742;2022-11-18T02:51:28;9.30;99.90
10046;DHT22;5063;50.878;4.742;2022-11-18T02:53:57;9.30;99.90
10046;DHT22;5063;50.878;4.742;2022-11-18T02:56:25;9.20;99.90
10046;DHT22;5063;50.878;4.742;2022-11-18T02:58:51;9.20;99.90
10046;DHT22;5063;50.878;4.742;2022-11-18T03:01:20;9.10;99.90
10046;DHT22;5063;50.878;4.742;2022-11-18T03:03:47;9.20;99.90
10046;DHT22;5063;50.878;4.742;2022-11-18T03:08:46;9.10;99.90
10046;DHT22;5063;50.878;4.742;2022-11-18T03:11:26;9.00;99.90
10046;DHT22;5063;50.878;4.742;2022-11-18T03:16:48;9.00;99.90
10046;DHT22;5063;50.878;4.742;2022-11-18T03:21:54;8.80;99.90
10046;DHT22;5063;50.878;4.742;2022-11-18T03:24:33;8.80;99.90
10046;DHT22;5063;50.878;4.742;2022-11-18T03:27:12;8.70;99.90
10046;DHT22;5063;50.878;4.742;2022-11-18T03:29:44;8.70;99.90
10046;DHT22;5063;50.878;4.742;2022-11-18T03:32:16;8.70;99.90
10046;DHT22;5063;50.878;4.742;2022-11-18T03:34:47;8.60;99.90
10046;DHT22;5063;50.878;4.742;2022-11-18T03:37:15;8.50;99.90
10046;DHT22;5063;50.878;4.742;2022-11-18T03:39:50;8.60;99.90
10046;DHT22;5063;50.878;4.742;2022-11-18T03:42:27;8.40;99.90
10046;DHT22;5063;50.878;4.742;2022-11-18T03:44:58;8.30;99.90
10046;DHT22;5063;50.878;4.742;2022-11-18T03:47:29;8.30;99.90
10046;DHT22;5063;50.878;4.742;2022-11-18T03:50:37;8.20;99.90
10046;DHT22;5063;50.878;4.742;2022-11-18T03:52:55;8.20;99.90
10046;DHT22;5063;50.878;4.742;2022-11-18T03:55:23;8.20;99.90
10046;DHT22;5063;50.878;4.742;2022-11-18T03:57:59;8.20;99.90
10046;DHT22;5063;50.878;4.742;2022-11-18T04:00:31;8.10;99.90
10046;DHT22;5063;50.878;4.742;2022-11-18T04:02:58;8.20;99.90
10046;DHT22;5063;50.878;4.742;2022-11-18T04:05:24;8.10;99.90
10046;DHT22;5063;50.878;4.742;2022-11-18T04:07:57;8.40;99.90
10046;DHT22;5063;50.878;4.742;2022-11-18T04:10:47;8.00;99.90
10046;DHT22;5063;50.878;4.742;2022-11-18T04:13:25;8.00;99.90
10046;DHT22;5063;50.878;4.742;2022-11-18T04:15:52;8.00;99.90
10046;DHT22;5063;50.878;4.742;2022-11-18T04:18:19;8.00;99.90
10046;DHT22;5063;50.878;4.742;2022-11-18T04:20:44;8.00;99.90
10046;DHT22;5063;50.878;4.742;2022-11-18T04:23:10;8.00;99.90
10046;DHT22;5063;50.878;4.742;2022-11-18T04:25:36;7.90;99.90
10046;DHT22;5063;50.878;4.742;2022-11-18T04:28:02;7.90;99.90
10046;DHT22;5063;50.878;4.742;2022-11-18T04:30:27;7.90;99.90
10046;DHT22;5063;50.878;4.742;2022-11-18T04:32:53;7.90;99.90
10046;DHT22;5063;50.878;4.742;2022-11-18T04:35:19;7.90;99.90
10046;DHT22;5063;50.878;4.742;2022-11-18T04:37:45;7.90;99.90
10046;DHT22;5063;50.878;4.742;2022-11-18T04:40:11;8.00;99.90
10046;DHT22;5063;50.878;4.742;2022-11-18T04:42:36;8.00;99.90
10046;DHT22;5063;50.878;4.742;2022-11-18T04:45:02;8.00;99.90
10046;DHT22;5063;50.878;4.742;2022-11-18T04:47:28;8.00;99.90
10046;DHT22;5063;50.878;4.742;2022-11-18T04:49:54;8.10;99.90
10046;DHT22;5063;50.878;4.742;2022-11-18T04:52:19;8.00;99.90
10046;DHT22;5063;50.878;4.742;2022-11-18T04:54:45;8.00;99.90
10046;DHT22;5063;50.878;4.742;2022-11-18T04:57:11;8.00;99.90
10046;DHT22;5063;50.878;4.742;2022-11-18T04:59:37;8.10;99.90
10046;DHT22;5063;50.878;4.742;2022-11-18T05:02:03;7.90;99.90
10046;DHT22;5063;50.878;4.742;2022-11-18T05:04:31;8.00;99.90
10046;DHT22;5063;50.878;4.742;2022-11-18T05:06:58;8.00;99.90
10046;DHT22;5063;50.878;4.742;2022-11-18T05:09:25;7.80;99.90
10046;DHT22;5063;50.878;4.742;2022-11-18T05:11:50;7.80;99.90
10046;DHT22;5063;50.878;4.742;2022-11-18T05:14:35;7.80;99.90
10046;DHT22;5063;50.878;4.742;2022-11-18T05:17:02;7.90;99.90
10046;DHT22;5063;50.878;4.742;2022-11-18T05:19:28;8.00;99.90
10046;DHT22;5063;50.878;4.742;2022-11-18T05:21:54;7.80;99.90
10046;DHT22;5063;50.878;4.742;2022-11-18T05:24:19;7.80;99.90
10046;DHT22;5063;50.878;4.742;2022-11-18T05:26:45;7.90;99.90
10046;DHT22;5063;50.878;4.742;2022-11-18T05:29:11;7.90;99.90
10046;DHT22;5063;50.878;4.742;2022-11-18T05:31:37;7.80;99.90
10046;DHT22;5063;50.878;4.742;2022-11-18T05:34:03;7.80;99.90
10046;DHT22;5063;50.878;4.742;2022-11-18T05:36:29;7.70;99.90
10046;DHT22;5063;50.878;4.742;2022-11-18T05:38:57;7.70;99.90
10046;DHT22;5063;50.878;4.742;2022-11-18T05:41:23;7.60;99.90
10046;DHT22;5063;50.878;4.742;2022-11-18T05:44:07;7.60;99.90
10046;DHT22;5063;50.878;4.742;2022-11-18T05:46:33;7.60;99.90
10046;DHT22;5063;50.878;4.742;2022-11-18T05:48:59;7.60;99.90
10046;DHT22;5063;50.878;4.742;2022-11-18T05:51:24;7.40;99.90
10046;DHT22;5063;50.878;4.742;2022-11-18T05:53:51;7.40;99.90
10046;DHT22;5063;50.878;4.742;2022-11-18T05:58:43;7.50;99.90
10046;DHT22;5063;50.878;4.742;2022-11-18T06:01:09;7.50;99.90
10046;DHT22;5063;50.878;4.742;2022-11-18T06:03:39;7.50;99.90
10046;DHT22;5063;50.878;4.742;2022-11-18T06:06:07;7.50;99.90
10046;DHT22;5063;50.878;4.742;2022-11-18T06:08:51;7.50;99.90
10046;DHT22;5063;50.878;4.742;2022-11-18T06:11:18;7.50;99.90
10046;DHT22;5063;50.878;4.742;2022-11-18T06:13:55;7.50;99.90
10046;DHT22;5063;50.878;4.742;2022-11-18T06:16:26;7.50;99.90
10046;DHT22;5063;50.878;4.742;2022-11-18T06:18:53;7.50;99.90
10046;DHT22;5063;50.878;4.742;2022-11-18T06:21:19;7.10;99.90
10046;DHT22;5063;50.878;4.742;2022-11-18T06:23:45;7.50;99.90
10046;DHT22;5063;50.878;4.742;2022-11-18T06:26:13;7.40;99.90
10046;DHT22;5063;50.878;4.742;2022-11-18T06:28:40;7.50;99.90
10046;DHT22;5063;50.878;4.742;2022-11-18T06:31:06;7.40;99.90
10046;DHT22;5063;50.878;4.742;2022-11-18T06:33:32;7.40;99.90
10046;DHT22;5063;50.878;4.742;2022-11-18T06:35:57;7.40;99.90
10046;DHT22;5063;50.878;4.742;2022-11-18T06:38:24;7.40;99.90
10046;DHT22;5063;50.878;4.742;2022-11-18T06:40:50;7.40;99.90
10046;DHT22;5063;50.878;4.742;2022-11-18T06:43:15;7.40;99.90
10046;DHT22;5063;50.878;4.742;2022-11-18T06:46:01;7.50;99.90
10046;DHT22;5063;50.878;4.742;2022-11-18T06:48:47;7.40;99.90
10046;DHT22;5063;50.878;4.742;2022-11-18T06:51:12;7.40;99.90
10046;DHT22;5063;50.878;4.742;2022-11-18T06:53:38;7.40;99.90
10046;DHT22;5063;50.878;4.742;2022-11-18T06:56:06;7.40;99.90
10046;DHT22;5063;50.878;4.742;2022-11-18T06:58:32;7.40;99.90
10046;DHT22;5063;50.878;4.742;2022-11-18T07:01:01;7.40;99.90
10046;DHT22;5063;50.878;4.742;2022-11-18T07:03:32;7.40;99.90
10046;DHT22;5063;50.878;4.742;2022-11-18T07:05:58;7.40;99.90
10046;DHT22;5063;50.878;4.742;2022-11-18T07:08:24;7.40;99.90
10046;DHT22;5063;50.878;4.742;2022-11-18T07:10:53;7.40;99.90
10046;DHT22;5063;50.878;4.742;2022-11-18T07:13:18;7.40;99.90
10046;DHT22;5063;50.878;4.742;2022-11-18T07:15:44;7.50;99.90
10046;DHT22;5063;50.878;4.742;2022-11-18T07:18:10;7.60;99.90
10046;DHT22;5063;50.878;4.742;2022-11-18T07:20:35;7.50;99.90
10046;DHT22;5063;50.878;4.742;2022-11-18T07:23:01;7.60;99.90
10046;DHT22;5063;50.878;4.742;2022-11-18T07:25:27;7.70;99.90
10046;DHT22;5063;50.878;4.742;2022-11-18T07:27:53;7.70;99.90
10046;DHT22;5063;50.878;4.742;2022-11-18T07:30:18;7.90;99.90
10046;DHT22;5063;50.878;4.742;2022-11-18T07:32:44;7.90;99.90
10046;DHT22;5063;50.878;4.742;2022-11-18T07:35:09;8.00;99.90
10046;DHT22;5063;50.878;4.742;2022-11-18T07:37:35;8.00;99.90
10046;DHT22;5063;50.878;4.742;2022-11-18T07:40:01;8.10;99.90
10046;DHT22;5063;50.878;4.742;2022-11-18T07:42:27;8.30;99.90
10046;DHT22;5063;50.878;4.742;2022-11-18T07:44:52;8.30;99.90
10046;DHT22;5063;50.878;4.742;2022-11-18T07:47:18;8.60;99.90
10046;DHT22;5063;50.878;4.742;2022-11-18T07:49:44;8.70;99.90
10046;DHT22;5063;50.878;4.742;2022-11-18T07:52:09;8.90;99.90
10046;DHT22;5063;50.878;4.742;2022-11-18T07:54:35;9.10;99.90
10046;DHT22;5063;50.878;4.742;2022-11-18T07:57:01;9.20;99.90
10046;DHT22;5063;50.878;4.742;2022-11-18T07:59:26;9.20;99.90
10046;DHT22;5063;50.878;4.742;2022-11-18T08:01:52;9.30;99.90
10046;DHT22;5063;50.878;4.742;2022-11-18T08:04:18;9.40;99.90
10046;DHT22;5063;50.878;4.742;2022-11-18T08:06:43;9.40;99.90
10046;DHT22;5063;50.878;4.742;2022-11-18T08:09:10;9.70;99.90
10046;DHT22;5063;50.878;4.742;2022-11-18T08:11:35;9.50;99.90
10046;DHT22;5063;50.878;4.742;2022-11-18T08:14:01;9.60;99.90
10046;DHT22;5063;50.878;4.742;2022-11-18T08:16:27;9.60;99.90
10046;DHT22;5063;50.878;4.742;2022-11-18T08:18:53;9.70;99.90
10046;DHT22;5063;50.878;4.742;2022-11-18T08:21:20;9.80;99.90
10046;DHT22;5063;50.878;4.742;2022-11-18T08:23:54;9.80;99.90
10046;DHT22;5063;50.878;4.742;2022-11-18T08:26:21;9.80;99.90
10046;DHT22;5063;50.878;4.742;2022-11-18T08:28:47;9.90;99.90
10046;DHT22;5063;50.878;4.742;2022-11-18T08:31:19;9.90;99.90
10046;DHT22;5063;50.878;4.742;2022-11-18T08:33:45;10.00;99.90
10046;DHT22;5063;50.878;4.742;2022-11-18T08:36:23;10.20;99.90
10046;DHT22;5063;50.878;4.742;2022-11-18T08:38:49;10.30;99.90
10046;DHT22;5063;50.878;4.742;2022-11-18T08:41:27;10.30;99.90
10046;DHT22;5063;50.878;4.742;2022-11-18T08:43:53;10.10;99.90
10046;DHT22;5063;50.878;4.742;2022-11-18T08:46:19;10.30;99.90
10046;DHT22;5063;50.878;4.742;2022-11-18T08:48:45;10.30;99.90
10046;DHT22;5063;50.878;4.742;2022-11-18T08:51:12;10.30;99.90
10046;DHT22;5063;50.878;4.742;2022-11-18T08:53:38;10.30;99.90
10046;DHT22;5063;50.878;4.742;2022-11-18T08:56:04;10.30;99.90
10046;DHT22;5063;50.878;4.742;2022-11-18T08:58:30;10.50;99.90
10046;DHT22;5063;50.878;4.742;2022-11-18T09:00:56;10.50;99.90
10046;DHT22;5063;50.878;4.742;2022-11-18T09:03:22;10.40;99.90
10046;DHT22;5063;50.878;4.742;2022-11-18T09:05:48;10.30;99.90
10046;DHT22;5063;50.878;4.742;2022-11-18T09:08:14;10.40;99.90
10046;DHT22;5063;50.878;4.742;2022-11-18T09:10:40;10.60;99.90
10046;DHT22;5063;50.878;4.742;2022-11-18T09:13:06;10.70;99.90
10046;DHT22;5063;50.878;4.742;2022-11-18T09:15:32;10.60;99.90
10046;DHT22;5063;50.878;4.742;2022-11-18T09:17:58;10.60;99.90
10046;DHT22;5063;50.878;4.742;2022-11-18T09:20:24;10.80;99.90
10046;DHT22;5063;50.878;4.742;2022-11-18T09:22:49;10.80;99.90
10046;DHT22;5063;50.878;4.742;2022-11-18T09:25:15;10.80;99.90
10046;DHT22;5063;50.878;4.742;2022-11-18T09:27:41;10.70;99.90
10046;DHT22;5063;50.878;4.742;2022-11-18T09:30:07;10.80;99.90
10046;DHT22;5063;50.878;4.742;2022-11-18T09:32:33;10.70;99.90
10046;DHT22;5063;50.878;4.742;2022-11-18T09:34:59;10.70;99.90
10046;DHT22;5063;50.878;4.742;2022-11-18T09:37:25;10.70;99.90
10046;DHT22;5063;50.878;4.742;2022-11-18T09:39:50;10.80;99.90
10046;DHT22;5063;50.878;4.742;2022-11-18T09:47:37;11.10;99.90
10046;DHT22;5063;50.878;4.742;2022-11-18T09:50:15;11.20;99.90
10046;DHT22;5063;50.878;4.742;2022-11-18T09:53:06;11.10;99.90
10046;DHT22;5063;50.878;4.742;2022-11-18T09:55:37;11.20;99.90
10046;DHT22;5063;50.878;4.742;2022-11-18T09:58:04;11.40;99.90
10046;DHT22;5063;50.878;4.742;2022-11-18T10:00:30;11.40;99.90
10046;DHT22;5063;50.878;4.742;2022-11-18T10:03:03;11.50;99.90
10046;DHT22;5063;50.878;4.742;2022-11-18T10:06:03;11.60;99.90
10046;DHT22;5063;50.878;4.742;2022-11-18T10:08:56;11.60;99.90
10046;DHT22;5063;50.878;4.742;2022-11-18T10:11:27;11.60;99.90
10046;DHT22;5063;50.878;4.742;2022-11-18T10:16:47;11.60;99.90
10046;DHT22;5063;50.878;4.742;2022-11-18T10:19:38;11.80;99.90
10046;DHT22;5063;50.878;4.742;2022-11-18T10:24:50;11.90;99.90
10046;DHT22;5063;50.878;4.742;2022-11-18T10:27:17;12.10;99.90
10046;DHT22;5063;50.878;4.742;2022-11-18T10:29:45;12.10;99.90
10046;DHT22;5063;50.878;4.742;2022-11-18T10:32:14;12.10;99.90
10046;DHT22;5063;50.878;4.742;2022-11-18T10:34:53;12.20;99.90
10046;DHT22;5063;50.878;4.742;2022-11-18T10:37:29;12.30;99.90
10046;DHT22;5063;50.878;4.742;2022-11-18T10:39:58;12.20;99.90
10046;DHT22;5063;50.878;4.742;2022-11-18T10:42:45;12.10;99.90
10046;DHT22;5063;50.878;4.742;2022-11-18T10:50:40;12.50;99.90
10046;DHT22;5063;50.878;4.742;2022-11-18T10:53:34;12.60;99.90
10046;DHT22;5063;50.878;4.742;2022-11-18T10:56:10;12.60;99.90
10046;DHT22;5063;50.878;4.742;2022-11-18T10:58:45;12.60;99.90
10046;DHT22;5063;50.878;4.742;2022-11-18T11:01:19;12.60;99.90
10046;DHT22;5063;50.878;4.742;2022-11-18T11:04:10;12.50;99.90
10046;DHT22;5063;50.878;4.742;2022-11-18T11:06:37;12.50;99.90
10046;DHT22;5063;50.878;4.742;2022-11-18T11:09:04;12.60;99.90
10046;DHT22;5063;50.878;4.742;2022-11-18T11:11:43;12.60;99.90
10046;DHT22;5063;50.878;4.742;2022-11-18T11:14:35;12.40;99.90
10046;DHT22;5063;50.878;4.742;2022-11-18T11:17:11;12.50;99.90
10046;DHT22;5063;50.878;4.742;2022-11-18T11:22:28;12.50;99.90
10046;DHT22;5063;50.878;4.742;2022-11-18T11:24:57;12.70;99.90
10046;DHT22;5063;50.878;4.742;2022-11-18T11:27:42;12.80;99.90
10046;DHT22;5063;50.878;4.742;2022-11-18T11:30:17;13.00;99.90
10046;DHT22;5063;50.878;4.742;2022-11-18T11:35:49;13.00;99.90
10046;DHT22;5063;50.878;4.742;2022-11-18T11:38:27;12.90;99.90
10046;DHT22;5063;50.878;4.742;2022-11-18T11:41:23;12.90;99.90
10046;DHT22;5063;50.878;4.742;2022-11-18T11:49:28;13.10;99.90
10046;DHT22;5063;50.878;4.742;2022-11-18T11:52:09;13.00;99.90
10046;DHT22;5063;50.878;4.742;2022-11-18T11:55:05;13.00;99.90
10046;DHT22;5063;50.878;4.742;2022-11-18T12:00:44;12.40;99.90
10046;DHT22;5063;50.878;4.742;2022-11-18T12:06:03;12.50;99.90
10046;DHT22;5063;50.878;4.742;2022-11-18T12:08:31;12.60;99.90
10046;DHT22;5063;50.878;4.742;2022-11-18T12:11:05;12.60;99.90
10046;DHT22;5063;50.878;4.742;2022-11-18T12:19:09;12.90;99.90
10046;DHT22;5063;50.878;4.742;2022-11-18T12:26:56;12.70;99.90
10046;DHT22;5063;50.878;4.742;2022-11-18T12:29:24;12.80;99.90
10046;DHT22;5063;50.878;4.742;2022-11-18T12:31:57;12.60;99.90
10046;DHT22;5063;50.878;4.742;2022-11-18T12:34:38;12.70;99.90
10046;DHT22;5063;50.878;4.742;2022-11-18T12:42:44;12.70;99.90
10046;DHT22;5063;50.878;4.742;2022-11-18T12:50:51;12.70;99.90
10046;DHT22;5063;50.878;4.742;2022-11-18T12:56:10;12.70;99.90
10046;DHT22;5063;50.878;4.742;2022-11-18T12:58:36;12.70;99.90
10046;DHT22;5063;50.878;4.742;2022-11-18T13:01:09;12.70;99.90
10046;DHT22;5063;50.878;4.742;2022-11-18T13:03:35;12.90;99.90
10046;DHT22;5063;50.878;4.742;2022-11-18T13:06:11;12.80;99.90
10046;DHT22;5063;50.878;4.742;2022-11-18T13:08:40;12.60;99.90
10046;DHT22;5063;50.878;4.742;2022-11-18T13:11:16;12.70;99.90
10046;DHT22;5063;50.878;4.742;2022-11-18T13:14:03;12.70;99.90
10046;DHT22;5063;50.878;4.742;2022-11-18T13:16:48;12.70;99.90
10046;DHT22;5063;50.878;4.742;2022-11-18T13:19:33;12.90;99.90
10046;DHT22;5063;50.878;4.742;2022-11-18T13:22:00;12.70;99.90
10046;DHT22;5063;50.878;4.742;2022-11-18T13:24:50;12.80;99.90
10046;DHT22;5063;50.878;4.742;2022-11-18T13:27:47;12.80;99.90
10046;DHT22;5063;50.878;4.742;2022-11-18T13:30:14;12.70;99.90
10046;DHT22;5063;50.878;4.742;2022-11-18T13:32:45;12.70;99.90
10046;DHT22;5063;50.878;4.742;2022-11-18T13:35:20;12.70;99.90
10046;DHT22;5063;50.878;4.742;2022-11-18T13:37:53;12.60;99.90
10046;DHT22;5063;50.878;4.742;2022-11-18T13:40:31;12.50;99.90
10046;DHT22;5063;50.878;4.742;2022-11-18T13:43:02;12.50;99.90
10046;DHT22;5063;50.878;4.742;2022-11-18T13:45:29;12.60;99.90
10046;DHT22;5063;50.878;4.742;2022-11-18T13:48:07;12.50;99.90
10046;DHT22;5063;50.878;4.742;2022-11-18T13:50:34;12.40;99.90
10046;DHT22;5063;50.878;4.742;2022-11-18T13:56:32;12.50;99.90
10046;DHT22;5063;50.878;4.742;2022-11-18T13:58:39;12.60;99.90
10046;DHT22;5063;50.878;4.742;2022-11-18T14:01:14;12.60;99.90
10046;DHT22;5063;50.878;4.742;2022-11-18T14:06:10;12.60;99.90
10046;DHT22;5063;50.878;4.742;2022-11-18T14:08:38;12.60;99.90
10046;DHT22;5063;50.878;4.742;2022-11-18T14:11:05;12.60;99.90
10046;DHT22;5063;50.878;4.742;2022-11-18T14:13:34;12.50;99.90
10046;DHT22;5063;50.878;4.742;2022-11-18T14:18:48;12.50;99.90
10046;DHT22;5063;50.878;4.742;2022-11-18T14:21:36;12.50;99.90
10046;DHT22;5063;50.878;4.742;2022-11-18T14:24:05;12.50;99.90
10046;DHT22;5063;50.878;4.742;2022-11-18T14:26:34;12.40;99.90
10046;DHT22;5063;50.878;4.742;2022-11-18T14:29:20;12.40;99.90
10046;DHT22;5063;50.878;4.742;2022-11-18T14:34:32;12.30;99.90
10046;DHT22;5063;50.878;4.742;2022-11-18T14:36:57;12.10;99.90
10046;DHT22;5063;50.878;4.742;2022-11-18T14:39:26;12.00;99.90
10046;DHT22;5063;50.878;4.742;2022-11-18T14:41:52;12.10;99.90
10046;DHT22;5063;50.878;4.742;2022-11-18T14:44:20;12.00;99.90
10046;DHT22;5063;50.878;4.742;2022-11-18T14:46:49;12.00;99.90
10046;DHT22;5063;50.878;4.742;2022-11-18T14:49:19;12.00;99.90
10046;DHT22;5063;50.878;4.742;2022-11-18T14:51:46;12.00;99.90
10046;DHT22;5063;50.878;4.742;2022-11-18T14:54:16;12.00;99.90
10046;DHT22;5063;50.878;4.742;2022-11-18T14:56:43;11.90;99.90
10046;DHT22;5063;50.878;4.742;2022-11-18T14:59:14;11.80;99.90
10046;DHT22;5063;50.878;4.742;2022-11-18T15:01:41;11.80;99.90
10046;DHT22;5063;50.878;4.742;2022-11-18T15:04:07;11.80;99.90
10046;DHT22;5063;50.878;4.742;2022-11-18T15:06:33;11.80;99.90
10046;DHT22;5063;50.878;4.742;2022-11-18T15:08:59;11.70;99.90
10046;DHT22;5063;50.878;4.742;2022-11-18T15:11:25;11.70;99.90
10046;DHT22;5063;50.878;4.742;2022-11-18T15:13:50;11.70;99.90
10046;DHT22;5063;50.878;4.742;2022-11-18T15:16:25;11.70;99.90
10046;DHT22;5063;50.878;4.742;2022-11-18T15:18:54;11.70;99.90
10046;DHT22;5063;50.878;4.742;2022-11-18T15:21:21;11.70;99.90
10046;DHT22;5063;50.878;4.742;2022-11-18T15:23:47;11.60;99.90
10046;DHT22;5063;50.878;4.742;2022-11-18T15:26:20;11.70;99.90
10046;DHT22;5063;50.878;4.742;2022-11-18T15:28:47;11.60;99.90
10046;DHT22;5063;50.878;4.742;2022-11-18T15:31:14;11.70;99.90
10046;DHT22;5063;50.878;4.742;2022-11-18T15:33:40;11.60;99.90
10046;DHT22;5063;50.878;4.742;2022-11-18T15:36:29;11.70;99.90
10046;DHT22;5063;50.878;4.742;2022-11-18T15:38:54;11.50;99.90
10046;DHT22;5063;50.878;4.742;2022-11-18T15:41:25;11.60;99.90
10046;DHT22;5063;50.878;4.742;2022-11-18T15:43:53;11.50;99.90
10046;DHT22;5063;50.878;4.742;2022-11-18T15:46:20;11.50;99.90
10046;DHT22;5063;50.878;4.742;2022-11-18T15:48:47;11.50;99.90
10046;DHT22;5063;50.878;4.742;2022-11-18T15:51:15;11.50;99.90
10046;DHT22;5063;50.878;4.742;2022-11-18T15:53:41;11.40;99.90
10046;DHT22;5063;50.878;4.742;2022-11-18T15:59:11;11.50;99.90
10046;DHT22;5063;50.878;4.742;2022-11-18T16:01:47;11.50;99.90
10046;DHT22;5063;50.878;4.742;2022-11-18T16:04:17;11.50;99.90
10046;DHT22;5063;50.878;4.742;2022-11-18T16:06:44;11.50;99.90
10046;DHT22;5063;50.878;4.742;2022-11-18T16:09:10;11.60;99.90
10046;DHT22;5063;50.878;4.742;2022-11-18T16:11:36;11.50;99.90
10046;DHT22;5063;50.878;4.742;2022-11-18T16:14:21;11.50;99.90
10046;DHT22;5063;50.878;4.742;2022-11-18T16:16:48;11.50;99.90
10046;DHT22;5063;50.878;4.742;2022-11-18T16:19:17;11.50;99.90
10046;DHT22;5063;50.878;4.742;2022-11-18T16:21:46;11.50;99.90
10046;DHT22;5063;50.878;4.742;2022-11-18T16:24:16;11.40;99.90
10046;DHT22;5063;50.878;4.742;2022-11-18T16:26:42;11.40;99.90
10046;DHT22;5063;50.878;4.742;2022-11-18T16:29:09;11.20;99.90
10046;DHT22;5063;50.878;4.742;2022-11-18T16:31:35;11.20;99.90
10046;DHT22;5063;50.878;4.742;2022-11-18T16:34:19;11.00;99.90
10046;DHT22;5063;50.878;4.742;2022-11-18T16:36:50;11.00;99.90
10046;DHT22;5063;50.878;4.742;2022-11-18T16:39:21;11.10;99.90
10046;DHT22;5063;50.878;4.742;2022-11-18T16:41:54;11.10;99.90
10046;DHT22;5063;50.878;4.742;2022-11-18T16:44:21;11.10;99.90
10046;DHT22;5063;50.878;4.742;2022-11-18T16:46:53;11.20;99.90
10046;DHT22;5063;50.878;4.742;2022-11-18T16:49:24;11.20;99.90
10046;DHT22;5063;50.878;4.742;2022-11-18T16:51:52;11.20;99.90
10046;DHT22;5063;50.878;4.742;2022-11-18T16:54:24;11.30;99.90
10046;DHT22;5063;50.878;4.742;2022-11-18T16:56:52;11.30;99.90
10046;DHT22;5063;50.878;4.742;2022-11-18T16:59:23;11.30;99.90
10046;DHT22;5063;50.878;4.742;2022-11-18T17:01:50;11.30;99.90
10046;DHT22;5063;50.878;4.742;2022-11-18T17:04:16;11.30;99.90
10046;DHT22;5063;50.878;4.742;2022-11-18T17:06:42;11.10;99.90
10046;DHT22;5063;50.878;4.742;2022-11-18T17:09:14;11.10;99.90
10046;DHT22;5063;50.878;4.742;2022-11-18T17:11:41;11.00;99.90
10046;DHT22;5063;50.878;4.742;2022-11-18T17:14:07;11.00;99.90
10046;DHT22;5063;50.878;4.742;2022-11-18T17:16:32;11.20;99.90
10046;DHT22;5063;50.878;4.742;2022-11-18T17:18:59;11.20;99.90
10046;DHT22;5063;50.878;4.742;2022-11-18T17:21:26;11.20;99.90
10046;DHT22;5063;50.878;4.742;2022-11-18T17:23:53;11.20;99.90
10046;DHT22;5063;50.878;4.742;2022-11-18T17:26:21;11.40;99.90
10046;DHT22;5063;50.878;4.742;2022-11-18T17:28:48;11.10;99.90
10046;DHT22;5063;50.878;4.742;2022-11-18T17:31:19;11.20;99.90
10046;DHT22;5063;50.878;4.742;2022-11-18T17:33:45;11.20;99.90
10046;DHT22;5063;50.878;4.742;2022-11-18T17:36:17;11.30;99.90
10046;DHT22;5063;50.878;4.742;2022-11-18T17:38:44;11.20;99.90
10046;DHT22;5063;50.878;4.742;2022-11-18T17:41:12;11.10;99.90
10046;DHT22;5063;50.878;4.742;2022-11-18T17:44:00;11.00;99.90
10046;DHT22;5063;50.878;4.742;2022-11-18T17:46:26;11.00;99.90
10046;DHT22;5063;50.878;4.742;2022-11-18T17:48:55;10.90;99.90
10046;DHT22;5063;50.878;4.742;2022-11-18T17:51:22;10.80;99.90